Main page
METAR-TAF:

METAR-TAF

Airports :

Madrid-Getafe, Spain

Getafe Air Base

latitude: 40-18N, longitude: 003-43W, elevation: 620 m

Current weather observation

The report was made 23 minutes ago, at 07:00 UTC
Wind 2 kt from the North
Temperature 0°C
Humidity 86%
Pressure 1018 hPa
Visibility 10 km or more
no clouds below 1500 m and no cumulonimbus

METAR: LEGT 220700Z 01002KT CAVOK 00/M02 Q1018

Time: 08:23 (07:23 UTC)

Forecast

The report was made 2 hours and 23 minutes ago, at 05:00 UTC
Forecast valid from 22 at 06 UTC to 22 at 15 UTC
Wind 5 kt from variable directions
Visibility 10 km or more
no clouds below 1500 m and no cumulonimbus

TAF: LEGT 220500Z 2206/2215 VRB05KT CAVOK

Weather observations and forecasts of more than 4000 airports (METAR and TAF reports).

The available stations are represented by yellow and red dots on the map.

Hover mouse over dot to see the name of the station.

Then click to see weather observations and forecasts.

To change the map : click on the green buttons with a black cross to zoom in, on the green button with a dash to zoom out, or on the green arrows for adjacent maps.


METAR-TAF: